Historyczne dane pomiarowe

Dodano dane terminowe – wersja testowa.

Dane z okresu 1951-2019

Wersja bazy: 1.34 [2019-03-16, lista zmian], aktualizacja planowana na 2019-04-15

Dane meteo z obszaru Polski uzyskane na podstawie danych udostępnionych przez Instytut Meteorologii i Gospodarki Wodnej – Państwowy Instytut Badawczy.

 

Wybierz Datę:    

       

TemperaturaWilgotnośćWiatrCiśnienieOpadyŚniegCzas trwania zjawisk
 Stacja t tx tn tng RH VA  wxwx mslp ppp RRR   cm mm wxwxwxwxwxwxwx
1987-08-14 13.9 20.1 8.8 5.5 78.3- 6.0 4.7---- 6.8------------
1987-08-13 12.2 17.6 9.0 7.5 92.3- 5.3 4.0---- 0.3------------
1987-08-12 10.6 13.7 8.6 7.5 92.3- 7.3 5.3---- 8.6------------
1987-08-11 12.1 16.6 10.5 10.0 84.8- 6.7 5.0---- 0.0------------
1987-08-10 12.9 17.3 12.5 10.9 95.5- 8.0 3.0---- 18.5------------
1987-08-09 14.6 20.7 9.2 5.5 80.3- 7.3 2.3---- 3.8------------
1987-08-08 13.3 20.3 6.2 3.2 72.5- 2.7 3.3---- 0.0------------
1987-08-07 12.7 17.5 10.0 9.2 78.0- 4.7 4.0---- 0.0------------
1987-08-06 12.0 16.3 8.8 7.5 84.8- 7.3 5.0---- 1.3------------
1987-08-05 11.3 17.1 5.7 2.9 80.8- 6.0 4.3---- 0.8------------
1987-08-04 12.0 16.9 8.1 4.7 88.5- 6.7 3.3---- 1.1------------
1987-08-03 12.0 17.0 8.8 7.3 83.3- 5.3 2.7---- 0.5------------
1987-08-02 12.8 17.6 9.5 8.0 84.0- 3.3 4.0---- 3.1------------
1987-08-01 13.9 17.7 11.0 8.1 89.8- 8.0 5.0---- 8.4------------
1987-07-31 13.6 17.1 12.5 9.8 93.8- 6.3 2.3---- 13.9------------
1987-07-30 14.0 18.6 7.8 4.7 82.5- 8.0 0.7---- 0.0------------
1987-07-29 13.2 17.1 10.2 9.3 81.3- 6.7 2.7---- 1.3------------
1987-07-28 12.0 17.2 10.0 9.3 94.8- 7.3 2.7---- 2.5------------
1987-07-27 10.7 14.7 7.1 4.7 81.3- 6.3 8.3---- 6.5------------
1987-07-26 12.9 17.1 9.5 7.0 79.0- 5.3 4.0---- 0.0------------
1987-07-25 15.9 20.5 13.5 10.6 80.3- 5.3 6.3---- 0.0------------
1987-07-24 18.3 23.6 15.1 12.9 81.0- 5.0 3.3---- 0.0------------
1987-07-23 20.1 25.4 15.9 12.9 81.8- 2.7 1.3---- 10.8------------
1987-07-22 19.2 25.2 13.2 11.1 81.8- 4.7 0.0---- 0.0------------
1987-07-21 17.3 21.6 14.6 15.1 87.8- 6.0 2.0---- 0.0------------
1987-07-20 16.5 20.9 13.9 13.0 86.5- 8.0 3.3---- 1.5------------
1987-07-19 18.2 22.6 13.2 11.5 69.5- 4.7 8.0---- 12.5------------
1987-07-18 19.5 24.3 15.4 14.1 68.8- 2.7 7.0---- 0.0------------
1987-07-17 18.3 23.8 12.9 11.2 69.5- 2.7 8.3---- 0.0------------
1987-07-16 16.1 22.1 9.5 6.0 73.8- 4.7 1.7---- 0.0------------
1987-07-15 14.7 20.9 7.2 3.5 74.5- 1.3 2.7---- 0.0------------
1987-07-14 13.8 19.1 9.7 6.5 79.3- 4.7 7.7---- 0.0------------
1987-07-13 13.2 16.7 11.5 10.1 91.8- 5.7 3.7---- 3.7------------
1987-07-12 15.1 17.1 13.0 12.9 95.0- 8.0 3.0---- 2.6------------
1987-07-11 11.2 13.7 8.8 7.2 90.5- 7.3 3.3---- 7.5------------
1987-07-10 11.4 16.6 9.4 8.3 86.8- 5.0 7.7---- 1.5------------
1987-07-09 16.5 24.1 15.0 14.7 84.5- 8.0 3.3---- 2.0------------
1987-07-08 20.5 27.5 13.5 8.5 64.5- 4.0 2.7---- 15.6------------
1987-07-07 19.4 26.0 10.3 6.5 61.8- 0.0 3.7---- 0.0------------
1987-07-06 16.9 23.4 9.4 5.8 66.5- 0.0 1.0---- 0.0------------
1987-07-05 15.5 21.6 10.0 8.7 69.5- 2.3 3.3---- 0.0------------
1987-07-04 14.8 20.6 9.0 5.2 70.0- 4.7 3.7---- 0.0------------
1987-07-03 15.5 20.6 9.3 5.9 67.5- 1.3 2.7---- 0.0------------
1987-07-02 17.4 21.6 14.0 13.1 70.5- 1.7 4.0---- 0.0------------
1987-07-01 22.9 29.2 19.3 17.2 81.5- 4.0 3.7---- 9.7------------
1987-06-30 21.7 27.0 18.1 17.8 80.5- 5.3 1.0---- 0.0------------
1987-06-29 15.3 20.5 6.6 4.0 81.5- 6.7 4.3---- 0.0------------
1987-06-28 13.3 17.1 11.2 7.5 83.8- 5.7 3.7---- 3.6------------
1987-06-27 16.1 19.6 14.6 12.0 84.3- 6.0 1.0---- 0.4------------
1987-06-26 14.1 19.5 8.3 5.0 76.5- 5.3 2.3---- 2.0------------
1987-06-25 11.7 15.6 11.0 9.0 89.3- 8.0 2.3---- 2.2------------
1987-06-24 14.5 18.6 12.5 11.5 79.3- 4.7 2.7---- 4.2------------
1987-06-23 13.9 19.7 9.2 8.0 84.0- 6.7 2.3---- 2.1------------
1987-06-22 17.4 22.5 11.0 6.9 72.3- 2.7 1.0---- 0.0------------
1987-06-21 15.9 22.3 7.9 7.5 74.5- 2.7 0.3---- 0.0------------
1987-06-20 14.3 20.1 8.2 4.4 69.0- 3.0 2.7---- 0.0------------
1987-06-19 9.9 13.8 6.8 5.1 85.0- 6.7 4.3---- 2.1------------
1987-06-18 10.3 16.6 4.2 1.0 76.8- 4.7 3.3---- 0.6------------
1987-06-17 11.1 12.7 10.5 10.1 81.0- 6.0 4.7---- 0.0------------
1987-06-16 13.0 19.9 9.7 10.5 91.8- 8.0 7.7---- 2.3------------
381.2 ms

 

Źródłem pochodzenia danych jest Instytut Meteorologii i Gospodarki Wodnej – Państwowy Instytut Badawczy. Dane Instytutu Meteorologii i Gospodarki Wodnej – Państwowego Instytutu Badawczego zostały przetworzone.

Dane źródłowe można odnaleźć na stronie https://dane.imgw.pl